createdAt,value
2018-05-02T00:02:29.522Z,27.40
2018-05-02T00:05:00.007Z,27.50
2018-05-02T00:07:29.862Z,27.50
2018-05-02T00:10:00.511Z,27.70
2018-05-02T00:12:30.179Z,27.60
2018-05-02T00:14:59.970Z,27.70
2018-05-02T00:17:29.677Z,27.80
2018-05-02T00:19:59.531Z,27.80
2018-05-02T00:22:30.078Z,27.90
2018-05-02T00:25:00.927Z,27.90
2018-05-02T00:27:30.608Z,28.00
2018-05-02T00:30:01.162Z,28.00
2018-05-02T00:32:30.991Z,28.00
2018-05-02T00:35:00.701Z,28.10
2018-05-02T00:37:30.541Z,28.10
2018-05-02T00:40:01.137Z,28.30
2018-05-02T00:42:30.883Z,28.30
2018-05-02T00:45:01.572Z,28.40
2018-05-02T00:47:31.313Z,28.50
2018-05-02T00:50:01.055Z,28.50
2018-05-02T00:52:30.757Z,28.60
2018-05-02T00:55:00.617Z,28.70
2018-05-02T00:57:30.455Z,28.80
2018-05-02T01:00:00.326Z,28.90
2018-05-02T01:02:30.859Z,29.10
2018-05-02T01:05:00.596Z,29.10
2018-05-02T01:07:30.318Z,29.10
2018-05-02T01:10:00.213Z,29.20
2018-05-02T01:12:29.951Z,29.20
2018-05-02T01:14:59.647Z,29.30
2018-05-02T01:17:29.442Z,29.40
2018-05-02T01:19:59.183Z,29.50
2018-05-02T01:22:28.911Z,29.50
2018-05-02T01:24:58.719Z,29.70
2018-05-02T01:27:28.431Z,29.70
2018-05-02T01:29:58.282Z,29.80
2018-05-02T01:32:28.025Z,29.80
2018-05-02T01:34:57.863Z,29.90
2018-05-02T01:37:27.706Z,30.00
2018-05-02T01:39:58.338Z,30.00
2018-05-02T01:42:28.788Z,30.00
2018-05-02T01:44:58.538Z,30.00
2018-05-02T01:47:28.400Z,30.10
2018-05-02T01:49:58.906Z,30.20
2018-05-02T01:52:29.521Z,30.20
2018-05-02T01:54:59.226Z,30.20
2018-05-02T01:57:28.905Z,30.20
2018-05-02T01:59:58.736Z,30.30
2018-05-02T02:02:28.510Z,30.30
2018-05-02T02:04:58.407Z,30.40
2018-05-02T02:07:29.025Z,30.60
2018-05-02T02:09:59.536Z,30.70
2018-05-02T02:12:29.379Z,30.60
2018-05-02T02:15:00.041Z,30.80
2018-05-02T02:17:29.848Z,30.80
2018-05-02T02:19:59.526Z,30.90
2018-05-02T02:22:30.131Z,31.10
2018-05-02T02:24:59.972Z,31.10
2018-05-02T02:27:31.500Z,31.40
2018-05-02T02:30:01.305Z,31.40
2018-05-02T02:32:31.066Z,31.50
2018-05-02T02:35:00.856Z,31.50
2018-05-02T02:37:31.354Z,31.60
2018-05-02T02:40:01.139Z,31.60
2018-05-02T02:42:30.947Z,31.70
2018-05-02T02:45:00.740Z,31.80
2018-05-02T02:47:30.672Z,31.90
2018-05-02T02:50:00.444Z,32.00
2018-05-02T02:52:30.972Z,32.20
2018-05-02T02:55:01.700Z,32.30
2018-05-02T02:57:31.641Z,32.30
2018-05-02T03:00:01.420Z,32.30
2018-05-02T03:02:31.193Z,32.40
2018-05-02T03:05:00.980Z,32.60
2018-05-02T03:07:30.752Z,32.60
2018-05-02T03:10:00.508Z,32.80
2018-05-02T03:12:30.267Z,32.90
2018-05-02T03:15:00.048Z,33.10
2018-05-02T03:17:29.855Z,33.10
2018-05-02T03:19:59.608Z,33.10
2018-05-02T03:22:29.341Z,33.20
2018-05-02T03:24:59.977Z,33.20
2018-05-02T03:27:29.738Z,33.20
2018-05-02T03:29:59.512Z,33.20
2018-05-02T03:32:29.343Z,33.30
2018-05-02T03:34:59.105Z,33.30
2018-05-02T03:37:29.633Z,33.40
2018-05-02T03:40:00.159Z,33.50
2018-05-02T03:42:30.799Z,33.60
2018-05-02T03:45:01.336Z,33.80
2018-05-02T03:47:31.119Z,33.70
2018-05-02T03:50:01.116Z,33.80
2018-05-02T03:52:30.939Z,33.90
2018-05-02T03:55:00.834Z,34.00
2018-05-02T03:57:30.621Z,34.10
2018-05-02T04:00:11.486Z,34.20
2018-05-02T04:02:52.239Z,34.00
2018-05-02T04:05:33.805Z,34.00
2018-05-02T04:08:03.579Z,34.00
2018-05-02T04:10:33.386Z,34.00
2018-05-02T04:13:03.430Z,34.00
2018-05-02T04:15:33.195Z,34.20
2018-05-02T04:18:03.013Z,34.40
2018-05-02T04:20:32.814Z,34.40
2018-05-02T04:23:02.571Z,34.40
2018-05-02T04:25:33.139Z,34.70
2018-05-02T04:28:03.668Z,34.70
2018-05-02T04:30:34.241Z,34.80
2018-05-02T04:33:04.019Z,34.70
2018-05-02T04:35:33.814Z,34.90
2018-05-02T04:38:04.366Z,34.90
2018-05-02T04:40:34.135Z,34.90
2018-05-02T04:43:03.896Z,34.90
2018-05-02T04:45:33.664Z,34.90
2018-05-02T04:48:03.413Z,35.00
2018-05-02T04:50:33.186Z,35.10
2018-05-02T04:53:03.005Z,35.20
2018-05-02T04:55:33.548Z,35.30
2018-05-02T04:58:03.281Z,35.20
2018-05-02T05:00:33.059Z,35.30
2018-05-02T05:03:03.599Z,35.20
2018-05-02T05:05:34.156Z,35.20
2018-05-02T05:08:03.947Z,35.20
2018-05-02T05:10:33.832Z,35.20
2018-05-02T05:13:03.698Z,35.10
2018-05-02T05:15:33.545Z,34.90
2018-05-02T05:18:03.265Z,34.90
2018-05-02T05:20:33.007Z,34.90
2018-05-02T05:23:02.691Z,34.90
2018-05-02T05:25:33.196Z,35.20
2018-05-02T05:28:03.081Z,35.20
2018-05-02T05:30:32.922Z,35.30
2018-05-02T05:33:02.628Z,35.30
2018-05-02T05:35:32.441Z,35.20
2018-05-02T05:38:02.228Z,34.90
2018-05-02T05:40:31.949Z,34.70
2018-05-02T05:43:01.646Z,34.60
2018-05-02T05:45:31.380Z,34.60
2018-05-02T05:48:01.246Z,34.60
2018-05-02T05:50:30.992Z,34.40
2018-05-02T05:53:00.926Z,34.20
2018-05-02T05:55:30.801Z,34.00
2018-05-02T05:58:00.489Z,33.80
2018-05-02T06:00:30.337Z,33.60
2018-05-02T06:03:00.887Z,33.30
2018-05-02T06:05:30.762Z,33.30
2018-05-02T06:08:00.463Z,33.20
2018-05-02T06:10:30.158Z,33.10
2018-05-02T06:13:00.621Z,33.00
2018-05-02T06:15:30.445Z,33.00
2018-05-02T06:18:00.169Z,33.20
2018-05-02T06:20:30.638Z,33.40
2018-05-02T06:23:01.288Z,33.40
2018-05-02T06:25:31.168Z,33.40
2018-05-02T06:28:01.653Z,33.50
2018-05-02T06:30:31.507Z,33.50
2018-05-02T06:33:01.348Z,33.40
2018-05-02T06:35:31.197Z,33.30
2018-05-02T06:38:01.032Z,33.10
2018-05-02T06:40:31.558Z,32.80
2018-05-02T06:43:01.409Z,32.80
2018-05-02T06:45:31.199Z,32.70
2018-05-02T06:48:01.149Z,32.60
2018-05-02T06:50:30.951Z,32.50
2018-05-02T06:53:00.728Z,32.40
2018-05-02T06:55:30.546Z,32.40
2018-05-02T06:58:00.299Z,32.30
2018-05-02T07:00:30.031Z,32.30
2018-05-02T07:02:59.810Z,32.30
2018-05-02T07:05:29.528Z,32.30
2018-05-02T07:07:59.280Z,32.30
2018-05-02T07:10:29.109Z,32.30
2018-05-02T07:12:58.866Z,32.30
2018-05-02T07:15:28.650Z,32.20
2018-05-02T07:17:59.192Z,32.20
2018-05-02T07:20:28.987Z,32.20
2018-05-02T07:22:59.491Z,32.30
2018-05-02T07:25:29.265Z,32.30
2018-05-02T07:27:59.020Z,32.30
2018-05-02T07:30:28.797Z,32.30
2018-05-02T07:32:58.636Z,32.40
2018-05-02T07:35:28.510Z,32.40
2018-05-02T07:37:58.266Z,32.40
2018-05-02T07:40:28.031Z,32.40
2018-05-02T07:42:57.819Z,32.60
2018-05-02T07:45:28.355Z,33.10
2018-05-02T07:47:58.151Z,33.00
2018-05-02T07:50:28.703Z,33.40
2018-05-02T07:52:58.465Z,33.30
2018-05-02T07:55:28.191Z,33.20
2018-05-02T07:57:58.750Z,32.90
2018-05-02T08:00:28.512Z,32.90
2018-05-02T08:02:58.305Z,32.80
2018-05-02T08:05:28.104Z,32.70
2018-05-02T08:07:57.883Z,32.60
2018-05-02T08:10:28.411Z,32.50
2018-05-02T08:12:58.972Z,32.50
2018-05-02T08:15:28.725Z,32.50
2018-05-02T08:17:58.513Z,32.40
2018-05-02T08:20:28.308Z,32.40
2018-05-02T08:22:58.129Z,32.50
2018-05-02T08:25:27.905Z,32.60
2018-05-02T08:27:57.685Z,32.60
2018-05-02T08:30:27.493Z,32.80
2018-05-02T08:32:57.312Z,32.80
2018-05-02T08:35:27.313Z,32.90
2018-05-02T08:37:57.112Z,32.90
2018-05-02T08:40:26.814Z,33.00
2018-05-02T08:42:57.397Z,33.20
2018-05-02T08:45:27.881Z,33.40
2018-05-02T08:47:57.691Z,33.40
2018-05-02T08:50:27.412Z,33.50
2018-05-02T08:52:57.247Z,33.60
2018-05-02T08:55:27.847Z,33.50
2018-05-02T08:57:58.281Z,33.40
2018-05-02T09:00:28.019Z,33.30
2018-05-02T09:02:58.454Z,33.00
2018-05-02T09:05:28.892Z,32.80
2018-05-02T09:07:58.720Z,32.80
2018-05-02T09:10:29.330Z,32.40
2018-05-02T09:12:59.922Z,32.20
2018-05-02T09:15:29.665Z,32.10
2018-05-02T09:18:00.098Z,31.90
2018-05-02T09:20:30.685Z,31.70
2018-05-02T09:23:00.518Z,31.70
2018-05-02T09:25:30.206Z,31.60
2018-05-02T09:27:59.884Z,31.40
2018-05-02T09:30:29.624Z,31.30
2018-05-02T09:32:59.315Z,31.20
2018-05-02T09:35:29.148Z,31.00
2018-05-02T09:37:58.848Z,30.80
2018-05-02T09:40:28.725Z,30.70
2018-05-02T09:42:58.484Z,30.50
2018-05-02T09:45:29.111Z,30.20
2018-05-02T09:47:58.814Z,30.20
2018-05-02T09:50:28.688Z,29.90
2018-05-02T09:52:58.536Z,29.70
2018-05-02T09:55:29.452Z,29.50
2018-05-02T09:57:59.175Z,29.30
2018-05-02T10:00:31.854Z,29.10
2018-05-02T10:03:01.697Z,29.10
2018-05-02T10:05:31.630Z,28.90
2018-05-02T10:08:02.215Z,28.60
2018-05-02T10:10:31.873Z,28.50
2018-05-02T10:13:02.441Z,28.20
2018-05-02T10:15:32.151Z,28.20
2018-05-02T10:18:01.893Z,28.10
2018-05-02T10:20:31.629Z,28.10
2018-05-02T10:23:02.119Z,27.90
2018-05-02T10:25:31.983Z,27.80
2018-05-02T10:28:02.718Z,27.80
2018-05-02T10:30:33.250Z,27.80
2018-05-02T10:33:04.634Z,27.80
2018-05-02T10:35:34.396Z,27.90
2018-05-02T10:38:04.928Z,28.10
2018-05-02T10:40:35.440Z,28.10
2018-05-02T10:43:05.196Z,28.10
2018-05-02T10:45:34.982Z,28.10
2018-05-02T10:48:05.504Z,28.10
2018-05-02T10:50:36.001Z,28.20
2018-05-02T10:53:05.822Z,28.10
2018-05-02T10:55:35.583Z,28.10
2018-05-02T10:58:05.369Z,28.10
2018-05-02T11:00:35.871Z,27.80
2018-05-02T11:03:06.476Z,27.70
2018-05-02T11:05:36.202Z,27.70
2018-05-02T11:08:05.937Z,27.60
2018-05-02T11:10:35.668Z,27.50
2018-05-02T11:13:06.172Z,27.30
2018-05-02T11:15:35.927Z,27.20
2018-05-02T11:18:05.711Z,27.20
2018-05-02T11:20:36.272Z,27.10
2018-05-02T11:23:07.039Z,27.10
2018-05-02T11:25:38.050Z,27.10
2018-05-02T11:28:08.448Z,27.10
2018-05-02T11:30:39.211Z,27.20
2018-05-02T11:33:09.514Z,27.20
2018-05-02T11:35:39.499Z,27.30
2018-05-02T11:38:10.321Z,27.40
2018-05-02T11:40:40.090Z,27.40
2018-05-02T11:43:09.856Z,27.40
2018-05-02T11:45:39.629Z,27.40
2018-05-02T11:48:10.199Z,27.40
2018-05-02T11:50:40.626Z,27.40
2018-05-02T11:53:12.281Z,27.40
2018-05-02T11:55:44.577Z,27.40
2018-05-02T11:58:14.712Z,27.40
2018-05-02T12:00:45.043Z,27.50
2018-05-02T12:03:15.586Z,27.50
2018-05-02T12:05:46.530Z,27.60
2018-05-02T12:08:17.203Z,27.60
2018-05-02T12:10:47.079Z,27.60
2018-05-02T12:13:16.846Z,27.60
2018-05-02T12:15:47.425Z,27.60
2018-05-02T12:18:17.159Z,27.60
2018-05-02T12:20:46.929Z,27.60
2018-05-02T12:23:16.708Z,27.50
2018-05-02T12:25:47.223Z,27.40
2018-05-02T12:28:17.754Z,27.50
2018-05-02T12:30:48.308Z,27.50
2018-05-02T12:33:18.042Z,27.50
2018-05-02T12:35:48.413Z,27.50
2018-05-02T12:38:18.943Z,27.50
2018-05-02T12:40:49.491Z,27.50
2018-05-02T12:43:19.260Z,27.50
2018-05-02T12:45:49.041Z,27.50
2018-05-02T12:48:18.809Z,27.50
2018-05-02T12:50:49.332Z,27.40
2018-05-02T12:53:19.854Z,27.30
2018-05-02T12:55:49.615Z,27.40
2018-05-02T12:58:19.389Z,27.30
2018-05-02T13:00:49.944Z,27.30
2018-05-02T13:03:19.708Z,27.30
2018-05-02T13:05:49.438Z,27.30
2018-05-02T13:08:19.970Z,26.90
2018-05-02T13:10:50.498Z,27.30
2018-05-02T13:13:21.027Z,27.30
2018-05-02T13:15:52.482Z,27.40
2018-05-02T13:18:23.925Z,27.40
2018-05-02T13:20:54.681Z,27.50
2018-05-02T13:23:24.432Z,27.50
2018-05-02T13:25:55.028Z,27.50
2018-05-02T13:28:24.759Z,27.40
2018-05-02T13:30:54.516Z,27.40
2018-05-02T13:33:24.666Z,27.40
2018-05-02T13:35:55.490Z,27.30
2018-05-02T13:38:25.324Z,27.30
2018-05-02T13:40:55.102Z,27.30
2018-05-02T13:43:25.927Z,27.20
2018-05-02T13:45:55.690Z,27.20
2018-05-02T13:48:26.280Z,27.30
2018-05-02T13:50:56.819Z,27.30
2018-05-02T13:53:27.343Z,27.30
2018-05-02T13:55:57.863Z,27.30
2018-05-02T13:58:28.336Z,27.30
2018-05-02T14:00:58.122Z,27.40
2018-05-02T14:03:27.879Z,27.40
2018-05-02T14:05:57.668Z,27.40
2018-05-02T14:08:27.542Z,27.40
2018-05-02T14:10:58.161Z,27.30
2018-05-02T14:13:28.010Z,27.30
2018-05-02T14:15:57.812Z,27.30
2018-05-02T14:18:27.562Z,27.20
2018-05-02T14:20:59.702Z,27.20
2018-05-02T14:23:29.448Z,27.20
2018-05-02T14:25:59.224Z,27.20
2018-05-02T14:28:28.990Z,27.10
2018-05-02T14:30:58.744Z,27.10
2018-05-02T14:33:28.490Z,27.10
2018-05-02T14:35:58.345Z,27.20
2018-05-02T14:38:29.502Z,27.20
2018-05-02T14:41:00.111Z,27.10
2018-05-02T14:43:30.747Z,27.00
2018-05-02T14:46:01.279Z,27.00
2018-05-02T14:48:31.867Z,27.00
2018-05-02T14:51:01.647Z,27.00
2018-05-02T14:53:31.518Z,27.00
2018-05-02T14:56:01.307Z,27.00
2018-05-02T14:58:31.087Z,27.00
2018-05-02T15:01:00.862Z,27.00
2018-05-02T15:03:32.235Z,27.00
2018-05-02T15:06:01.989Z,26.90
2018-05-02T15:08:31.765Z,27.00
2018-05-02T15:11:01.569Z,27.00
2018-05-02T15:13:31.300Z,27.10
2018-05-02T15:16:01.089Z,27.10
2018-05-02T15:18:30.881Z,27.10
2018-05-02T15:21:00.718Z,27.20
2018-05-02T15:23:32.454Z,27.30
2018-05-02T15:26:02.976Z,27.40
2018-05-02T15:28:33.491Z,27.40
2018-05-02T15:31:03.267Z,27.40
2018-05-02T15:33:33.023Z,27.30
2018-05-02T15:36:03.557Z,27.30
2018-05-02T15:38:33.414Z,27.20
2018-05-02T15:41:03.195Z,27.20
2018-05-02T15:43:32.958Z,27.20
2018-05-02T15:46:02.747Z,27.20
2018-05-02T15:48:32.514Z,27.20
2018-05-02T15:51:03.743Z,27.20
2018-05-02T15:53:33.503Z,27.20
2018-05-02T15:56:03.323Z,27.20
2018-05-02T15:58:33.129Z,27.20
2018-05-02T16:01:03.001Z,27.20
2018-05-02T16:03:33.752Z,27.10
2018-05-02T16:06:04.292Z,27.10
2018-05-02T16:08:34.060Z,27.10
2018-05-02T16:11:03.817Z,27.10
2018-05-02T16:13:33.564Z,27.10
2018-05-02T16:16:03.650Z,27.10
2018-05-02T16:18:34.004Z,27.10
2018-05-02T16:21:04.678Z,27.00
2018-05-02T16:23:35.211Z,27.00
2018-05-02T16:26:05.864Z,27.00
2018-05-02T16:28:35.763Z,27.00
2018-05-02T16:31:06.276Z,27.00
2018-05-02T16:33:36.799Z,26.90
2018-05-02T16:36:07.324Z,26.90
2018-05-02T16:38:37.820Z,26.80
2018-05-02T16:41:07.603Z,26.80
2018-05-02T16:43:37.336Z,26.80
2018-05-02T16:46:07.098Z,26.80
2018-05-02T16:48:37.628Z,26.80
2018-05-02T16:51:08.162Z,26.80
2018-05-02T16:53:38.662Z,26.70
2018-05-02T16:56:08.388Z,26.70
2018-05-02T16:58:39.751Z,26.70
2018-05-02T17:01:10.286Z,26.80
2018-05-02T17:03:40.796Z,26.70
2018-05-02T17:06:14.290Z,26.70
2018-05-02T17:08:44.755Z,26.70
2018-05-02T17:11:14.531Z,26.70
2018-05-02T17:13:45.068Z,26.70
2018-05-02T17:16:15.590Z,26.70
2018-05-02T17:18:47.120Z,26.70
2018-05-02T17:21:17.203Z,26.70
2018-05-02T17:23:47.255Z,26.70
2018-05-02T17:26:17.431Z,26.70
2018-05-02T17:28:47.607Z,26.60
2018-05-02T17:31:18.566Z,26.50
2018-05-02T17:33:49.059Z,26.50
2018-05-02T17:36:18.810Z,26.50
2018-05-02T17:38:49.331Z,26.50
2018-05-02T17:41:20.846Z,26.50
2018-05-02T17:43:50.588Z,26.50
2018-05-02T17:46:21.182Z,26.30
2018-05-02T17:48:50.977Z,26.30
2018-05-02T17:51:20.744Z,26.30
2018-05-02T17:53:51.260Z,26.30
2018-05-02T17:56:21.039Z,26.30
2018-05-02T17:58:50.833Z,26.30
2018-05-02T18:01:20.579Z,26.20
2018-05-02T18:03:51.195Z,26.20
2018-05-02T18:06:20.951Z,26.20
2018-05-02T18:08:51.476Z,26.20
2018-05-02T18:11:22.001Z,26.20
2018-05-02T18:14:03.160Z,26.20
2018-05-02T18:16:32.925Z,26.20
2018-05-02T18:19:02.683Z,26.20
2018-05-02T18:21:32.414Z,26.20
2018-05-02T18:24:02.915Z,26.10
2018-05-02T18:26:32.670Z,26.20
2018-05-02T18:29:02.419Z,26.20
2018-05-02T18:31:32.154Z,26.10
2018-05-02T18:34:01.907Z,26.10
2018-05-02T18:36:31.643Z,26.10
2018-05-02T18:39:01.490Z,26.20
2018-05-02T18:41:32.122Z,26.30
2018-05-02T18:44:01.882Z,26.30
2018-05-02T18:46:31.753Z,26.30
2018-05-02T18:49:02.480Z,26.40
2018-05-02T18:51:32.208Z,26.40
2018-05-02T18:54:02.241Z,26.40
2018-05-02T18:56:32.164Z,26.40
2018-05-02T18:59:03.044Z,26.40
2018-05-02T19:01:32.776Z,26.30
2018-05-02T19:04:03.317Z,26.10
2018-05-02T19:06:33.826Z,25.90
2018-05-02T19:09:03.582Z,25.90
2018-05-02T19:11:33.399Z,25.90
2018-05-02T19:14:03.153Z,25.70
2018-05-02T19:16:33.304Z,25.70
2018-05-02T19:19:08.508Z,25.60
2018-05-02T19:21:38.316Z,25.70
2018-05-02T19:24:08.065Z,25.70
2018-05-02T19:26:38.703Z,25.70
2018-05-02T19:29:09.203Z,25.70
2018-05-02T19:31:44.073Z,25.60
2018-05-02T19:34:14.838Z,25.70
2018-05-02T19:36:45.255Z,25.60
2018-05-02T19:39:15.001Z,25.70
2018-05-02T19:41:49.928Z,25.80
2018-05-02T19:44:19.922Z,25.80
2018-05-02T19:46:49.703Z,25.80
2018-05-02T19:49:19.457Z,25.90
2018-05-02T19:51:54.394Z,25.90
2018-05-02T19:54:25.029Z,26.00
2018-05-02T19:56:55.986Z,26.00
2018-05-02T19:59:27.338Z,26.00
2018-05-02T20:02:03.171Z,26.00
2018-05-02T20:04:33.724Z,25.90
2018-05-02T20:07:04.455Z,26.00
2018-05-02T20:09:41.128Z,26.00
2018-05-02T20:12:16.880Z,26.00
2018-05-02T20:14:47.408Z,26.00
2018-05-02T20:17:17.919Z,26.00
2018-05-02T20:19:47.652Z,26.00
2018-05-02T20:22:18.154Z,26.00
2018-05-02T20:24:47.885Z,26.10
2018-05-02T20:27:17.583Z,26.00
2018-05-02T20:29:47.332Z,26.00
2018-05-02T20:32:17.196Z,26.00
2018-05-02T20:34:47.318Z,25.90
2018-05-02T20:37:18.273Z,25.90
2018-05-02T20:39:48.766Z,25.80
2018-05-02T20:42:18.496Z,25.80
2018-05-02T20:44:48.249Z,25.80
2018-05-02T20:47:18.035Z,25.80
2018-05-02T20:49:48.158Z,25.90
2018-05-02T20:52:18.346Z,25.90
2018-05-02T20:54:49.300Z,25.90
2018-05-02T20:57:20.583Z,25.80
2018-05-02T20:59:50.302Z,25.80
2018-05-02T21:02:20.062Z,25.70
2018-05-02T21:04:49.808Z,25.70
2018-05-02T21:07:19.546Z,25.70
2018-05-02T21:09:49.303Z,25.70
2018-05-02T21:12:19.204Z,25.70
2018-05-02T21:14:50.119Z,25.60
2018-05-02T21:17:19.832Z,25.60
2018-05-02T21:19:49.585Z,25.60
2018-05-02T21:22:20.141Z,25.60
2018-05-02T21:24:49.930Z,25.70
2018-05-02T21:27:20.768Z,25.70
2018-05-02T21:29:51.373Z,25.70
2018-05-02T21:32:21.113Z,25.70
2018-05-02T21:34:50.868Z,25.70
2018-05-02T21:37:20.600Z,25.80
2018-05-02T21:39:51.321Z,25.80
2018-05-02T21:42:22.042Z,25.80
2018-05-02T21:44:51.796Z,25.80
2018-05-02T21:47:22.331Z,25.80
2018-05-02T21:49:52.856Z,25.80
2018-05-02T21:52:23.418Z,25.80
2018-05-02T21:54:53.167Z,25.80
2018-05-02T21:57:22.927Z,25.80
2018-05-02T21:59:52.826Z,25.80
2018-05-02T22:02:23.350Z,25.80
2018-05-02T22:04:53.858Z,25.70
2018-05-02T22:07:23.578Z,25.70
2018-05-02T22:09:54.127Z,25.70
2018-05-02T22:12:24.642Z,25.70
2018-05-02T22:14:55.154Z,25.70
2018-05-02T22:17:24.928Z,25.70
2018-05-02T22:19:54.688Z,25.70
2018-05-02T22:22:24.440Z,25.70
2018-05-02T22:24:55.043Z,25.70
2018-05-02T22:27:25.562Z,25.70
2018-05-02T22:29:57.782Z,25.60
2018-05-02T22:32:27.504Z,25.60
2018-05-02T22:34:58.156Z,25.70
2018-05-02T22:37:28.672Z,25.60
2018-05-02T22:39:58.433Z,25.60
2018-05-02T22:42:28.680Z,25.60
2018-05-02T22:44:58.418Z,25.60
2018-05-02T22:47:28.164Z,25.50
2018-05-02T22:49:59.507Z,25.50
2018-05-02T22:52:30.043Z,25.40
2018-05-02T22:55:00.553Z,25.40
2018-05-02T22:57:30.274Z,25.40
2018-05-02T23:00:01.450Z,25.40
2018-05-02T23:02:31.219Z,25.40
2018-05-02T23:05:01.742Z,25.40
2018-05-02T23:07:31.541Z,25.40
2018-05-02T23:10:01.316Z,25.40
2018-05-02T23:12:31.094Z,25.40
2018-05-02T23:15:01.615Z,25.40
2018-05-02T23:17:32.116Z,25.40
2018-05-02T23:20:01.893Z,25.40
2018-05-02T23:22:31.643Z,25.50
2018-05-02T23:25:01.406Z,25.60
2018-05-02T23:27:31.146Z,25.60
2018-05-02T23:30:00.903Z,25.60
2018-05-02T23:32:31.434Z,25.70
2018-05-02T23:35:01.959Z,25.70
2018-05-02T23:37:32.492Z,25.80
2018-05-02T23:40:03.015Z,25.80
2018-05-02T23:42:33.532Z,25.90
2018-05-02T23:45:04.070Z,25.90
2018-05-02T23:47:34.606Z,26.00
2018-05-02T23:50:05.142Z,26.00
2018-05-02T23:52:35.659Z,26.10
2018-05-02T23:55:06.188Z,26.20
2018-05-02T23:57:37.620Z,26.30
